sensor_id;sensor_type;location;lat;lon;timestamp;P1;durP1;ratioP1;P2;durP2;ratioP2
76103;SDS011;64831;44.870;37.336;2024-02-14T00:00:19;6.90;;;4.07;;
76103;SDS011;64831;44.870;37.336;2024-02-14T00:02:47;12.77;;;4.55;;
76103;SDS011;64831;44.870;37.336;2024-02-14T00:05:15;12.32;;;4.47;;
76103;SDS011;64831;44.870;37.336;2024-02-14T00:07:42;7.03;;;3.45;;
76103;SDS011;64831;44.870;37.336;2024-02-14T00:10:08;12.60;;;4.47;;
76103;SDS011;64831;44.870;37.336;2024-02-14T00:12:35;7.10;;;4.22;;
76103;SDS011;64831;44.870;37.336;2024-02-14T00:15:02;9.10;;;4.55;;
76103;SDS011;64831;44.870;37.336;2024-02-14T00:17:29;16.40;;;4.40;;
76103;SDS011;64831;44.870;37.336;2024-02-14T00:19:55;12.02;;;4.72;;
76103;SDS011;64831;44.870;37.336;2024-02-14T00:22:21;9.45;;;4.45;;
76103;SDS011;64831;44.870;37.336;2024-02-14T00:24:47;9.23;;;4.10;;
76103;SDS011;64831;44.870;37.336;2024-02-14T00:27:13;9.20;;;4.53;;
76103;SDS011;64831;44.870;37.336;2024-02-14T00:29:42;11.73;;;4.50;;
76103;SDS011;64831;44.870;37.336;2024-02-14T00:32:13;12.90;;;4.28;;
76103;SDS011;64831;44.870;37.336;2024-02-14T00:34:39;9.30;;;4.20;;
76103;SDS011;64831;44.870;37.336;2024-02-14T00:37:05;9.30;;;4.63;;
76103;SDS011;64831;44.870;37.336;2024-02-14T00:39:31;10.52;;;4.15;;
76103;SDS011;64831;44.870;37.336;2024-02-14T00:41:57;6.38;;;3.95;;
76103;SDS011;64831;44.870;37.336;2024-02-14T00:44:23;11.13;;;3.85;;
76103;SDS011;64831;44.870;37.336;2024-02-14T00:46:49;11.00;;;3.90;;
76103;SDS011;64831;44.870;37.336;2024-02-14T00:49:27;9.00;;;3.70;;
76103;SDS011;64831;44.870;37.336;2024-02-14T00:51:54;9.50;;;3.72;;
76103;SDS011;64831;44.870;37.336;2024-02-14T00:54:20;9.10;;;4.32;;
76103;SDS011;64831;44.870;37.336;2024-02-14T00:56:46;7.35;;;3.55;;
76103;SDS011;64831;44.870;37.336;2024-02-14T00:59:12;9.73;;;4.45;;
76103;SDS011;64831;44.870;37.336;2024-02-14T01:01:38;9.38;;;4.60;;
76103;SDS011;64831;44.870;37.336;2024-02-14T01:04:04;8.13;;;3.95;;
76103;SDS011;64831;44.870;37.336;2024-02-14T01:06:30;8.45;;;3.67;;
76103;SDS011;64831;44.870;37.336;2024-02-14T01:08:57;10.20;;;4.07;;
76103;SDS011;64831;44.870;37.336;2024-02-14T01:11:22;11.43;;;4.40;;
76103;SDS011;64831;44.870;37.336;2024-02-14T01:13:48;7.22;;;4.10;;
76103;SDS011;64831;44.870;37.336;2024-02-14T01:16:14;10.00;;;4.55;;
76103;SDS011;64831;44.870;37.336;2024-02-14T01:18:40;7.97;;;4.35;;
76103;SDS011;64831;44.870;37.336;2024-02-14T01:21:06;8.85;;;4.25;;
76103;SDS011;64831;44.870;37.336;2024-02-14T01:23:33;9.02;;;3.88;;
76103;SDS011;64831;44.870;37.336;2024-02-14T01:25:59;8.00;;;4.25;;
76103;SDS011;64831;44.870;37.336;2024-02-14T01:28:26;11.52;;;4.00;;
76103;SDS011;64831;44.870;37.336;2024-02-14T01:30:52;9.63;;;3.55;;
76103;SDS011;64831;44.870;37.336;2024-02-14T01:33:18;10.50;;;3.63;;
76103;SDS011;64831;44.870;37.336;2024-02-14T01:35:44;8.48;;;3.72;;
76103;SDS011;64831;44.870;37.336;2024-02-14T01:38:10;13.35;;;3.90;;
76103;SDS011;64831;44.870;37.336;2024-02-14T01:40:38;7.20;;;3.63;;
76103;SDS011;64831;44.870;37.336;2024-02-14T01:43:07;9.43;;;3.90;;
76103;SDS011;64831;44.870;37.336;2024-02-14T01:45:33;7.90;;;3.70;;
76103;SDS011;64831;44.870;37.336;2024-02-14T01:48:00;8.18;;;3.95;;
76103;SDS011;64831;44.870;37.336;2024-02-14T01:50:27;10.02;;;3.80;;
76103;SDS011;64831;44.870;37.336;2024-02-14T01:52:58;6.55;;;3.38;;
76103;SDS011;64831;44.870;37.336;2024-02-14T01:55:26;7.25;;;3.42;;
76103;SDS011;64831;44.870;37.336;2024-02-14T01:57:54;8.10;;;3.40;;
76103;SDS011;64831;44.870;37.336;2024-02-14T02:00:20;8.85;;;3.65;;
76103;SDS011;64831;44.870;37.336;2024-02-14T02:02:47;5.30;;;3.28;;
76103;SDS011;64831;44.870;37.336;2024-02-14T02:05:18;10.40;;;3.42;;
76103;SDS011;64831;44.870;37.336;2024-02-14T02:07:44;9.32;;;3.65;;
76103;SDS011;64831;44.870;37.336;2024-02-14T02:10:13;4.80;;;2.85;;
76103;SDS011;64831;44.870;37.336;2024-02-14T02:12:40;10.93;;;4.32;;
76103;SDS011;64831;44.870;37.336;2024-02-14T02:15:06;10.75;;;3.40;;
76103;SDS011;64831;44.870;37.336;2024-02-14T02:17:33;8.57;;;3.92;;
76103;SDS011;64831;44.870;37.336;2024-02-14T02:20:00;6.35;;;3.83;;
76103;SDS011;64831;44.870;37.336;2024-02-14T02:22:26;7.38;;;3.67;;
76103;SDS011;64831;44.870;37.336;2024-02-14T02:24:54;6.85;;;3.80;;
76103;SDS011;64831;44.870;37.336;2024-02-14T02:27:20;11.63;;;4.07;;
76103;SDS011;64831;44.870;37.336;2024-02-14T02:29:46;5.18;;;3.03;;
76103;SDS011;64831;44.870;37.336;2024-02-14T02:32:12;6.63;;;3.05;;
76103;SDS011;64831;44.870;37.336;2024-02-14T02:34:38;8.93;;;3.72;;
76103;SDS011;64831;44.870;37.336;2024-02-14T02:37:05;10.70;;;3.92;;
76103;SDS011;64831;44.870;37.336;2024-02-14T02:39:34;8.27;;;3.85;;
76103;SDS011;64831;44.870;37.336;2024-02-14T02:42:03;9.13;;;4.03;;
76103;SDS011;64831;44.870;37.336;2024-02-14T02:44:30;8.25;;;3.70;;
76103;SDS011;64831;44.870;37.336;2024-02-14T02:46:57;7.38;;;3.97;;
76103;SDS011;64831;44.870;37.336;2024-02-14T02:49:23;9.38;;;3.67;;
76103;SDS011;64831;44.870;37.336;2024-02-14T02:51:49;13.27;;;4.18;;
76103;SDS011;64831;44.870;37.336;2024-02-14T02:54:15;11.10;;;3.92;;
76103;SDS011;64831;44.870;37.336;2024-02-14T02:56:41;11.77;;;4.15;;
76103;SDS011;64831;44.870;37.336;2024-02-14T02:59:07;6.28;;;3.70;;
76103;SDS011;64831;44.870;37.336;2024-02-14T03:01:36;7.85;;;3.35;;
76103;SDS011;64831;44.870;37.336;2024-02-14T03:04:02;9.88;;;4.10;;
76103;SDS011;64831;44.870;37.336;2024-02-14T03:06:28;8.45;;;3.63;;
76103;SDS011;64831;44.870;37.336;2024-02-14T03:08:55;7.22;;;3.65;;
76103;SDS011;64831;44.870;37.336;2024-02-14T03:11:22;8.48;;;3.60;;
76103;SDS011;64831;44.870;37.336;2024-02-14T03:13:48;12.40;;;3.67;;
76103;SDS011;64831;44.870;37.336;2024-02-14T03:16:17;8.80;;;3.60;;
76103;SDS011;64831;44.870;37.336;2024-02-14T03:18:43;11.80;;;3.55;;
76103;SDS011;64831;44.870;37.336;2024-02-14T03:21:09;7.03;;;3.58;;
76103;SDS011;64831;44.870;37.336;2024-02-14T03:23:37;8.77;;;3.80;;
76103;SDS011;64831;44.870;37.336;2024-02-14T03:26:05;8.65;;;3.40;;
76103;SDS011;64831;44.870;37.336;2024-02-14T03:28:33;8.07;;;3.50;;
76103;SDS011;64831;44.870;37.336;2024-02-14T03:30:59;9.63;;;3.33;;
76103;SDS011;64831;44.870;37.336;2024-02-14T03:33:25;7.78;;;3.92;;
76103;SDS011;64831;44.870;37.336;2024-02-14T03:35:51;8.05;;;3.85;;
76103;SDS011;64831;44.870;37.336;2024-02-14T03:38:27;10.13;;;3.85;;
76103;SDS011;64831;44.870;37.336;2024-02-14T03:40:53;8.27;;;3.15;;
76103;SDS011;64831;44.870;37.336;2024-02-14T03:43:20;7.40;;;3.05;;
76103;SDS011;64831;44.870;37.336;2024-02-14T03:45:48;7.53;;;3.53;;
76103;SDS011;64831;44.870;37.336;2024-02-14T03:48:15;7.20;;;3.88;;
76103;SDS011;64831;44.870;37.336;2024-02-14T03:50:41;9.00;;;3.90;;
76103;SDS011;64831;44.870;37.336;2024-02-14T03:53:08;10.77;;;3.65;;
76103;SDS011;64831;44.870;37.336;2024-02-14T03:55:39;7.43;;;3.40;;
76103;SDS011;64831;44.870;37.336;2024-02-14T03:58:06;6.72;;;4.00;;
76103;SDS011;64831;44.870;37.336;2024-02-14T04:00:34;11.18;;;4.05;;
76103;SDS011;64831;44.870;37.336;2024-02-14T04:03:02;7.22;;;3.53;;
76103;SDS011;64831;44.870;37.336;2024-02-14T04:05:28;8.00;;;3.92;;
76103;SDS011;64831;44.870;37.336;2024-02-14T04:07:54;7.13;;;3.63;;
76103;SDS011;64831;44.870;37.336;2024-02-14T04:10:21;7.28;;;3.70;;
76103;SDS011;64831;44.870;37.336;2024-02-14T04:12:47;8.13;;;3.58;;
76103;SDS011;64831;44.870;37.336;2024-02-14T04:15:13;13.05;;;3.80;;
76103;SDS011;64831;44.870;37.336;2024-02-14T04:17:40;6.82;;;3.55;;
76103;SDS011;64831;44.870;37.336;2024-02-14T04:20:06;5.57;;;3.55;;
76103;SDS011;64831;44.870;37.336;2024-02-14T04:22:32;9.60;;;3.70;;
76103;SDS011;64831;44.870;37.336;2024-02-14T04:24:58;6.85;;;3.22;;
76103;SDS011;64831;44.870;37.336;2024-02-14T04:27:25;13.70;;;4.13;;
76103;SDS011;64831;44.870;37.336;2024-02-14T04:29:51;9.80;;;3.58;;
76103;SDS011;64831;44.870;37.336;2024-02-14T04:32:16;12.45;;;3.97;;
76103;SDS011;64831;44.870;37.336;2024-02-14T04:34:45;9.57;;;3.50;;
76103;SDS011;64831;44.870;37.336;2024-02-14T04:37:10;8.40;;;3.70;;
76103;SDS011;64831;44.870;37.336;2024-02-14T04:39:39;9.70;;;3.70;;
76103;SDS011;64831;44.870;37.336;2024-02-14T04:42:05;11.93;;;4.28;;
76103;SDS011;64831;44.870;37.336;2024-02-14T04:44:31;11.32;;;3.63;;
76103;SDS011;64831;44.870;37.336;2024-02-14T04:46:58;11.00;;;3.88;;
76103;SDS011;64831;44.870;37.336;2024-02-14T04:49:24;10.90;;;3.78;;
76103;SDS011;64831;44.870;37.336;2024-02-14T04:51:51;13.15;;;3.75;;
76103;SDS011;64831;44.870;37.336;2024-02-14T04:54:18;8.27;;;3.58;;
76103;SDS011;64831;44.870;37.336;2024-02-14T04:56:47;13.80;;;4.13;;
76103;SDS011;64831;44.870;37.336;2024-02-14T04:59:12;18.77;;;3.75;;
76103;SDS011;64831;44.870;37.336;2024-02-14T05:01:38;25.58;;;4.75;;
76103;SDS011;64831;44.870;37.336;2024-02-14T05:04:05;9.88;;;4.25;;
76103;SDS011;64831;44.870;37.336;2024-02-14T05:06:34;26.10;;;4.95;;
76103;SDS011;64831;44.870;37.336;2024-02-14T05:09:01;16.55;;;3.70;;
76103;SDS011;64831;44.870;37.336;2024-02-14T05:11:27;20.73;;;4.60;;
76103;SDS011;64831;44.870;37.336;2024-02-14T05:13:53;26.08;;;4.88;;
76103;SDS011;64831;44.870;37.336;2024-02-14T05:16:20;25.05;;;4.90;;
76103;SDS011;64831;44.870;37.336;2024-02-14T05:18:46;25.40;;;5.03;;
76103;SDS011;64831;44.870;37.336;2024-02-14T05:21:12;19.10;;;4.53;;
76103;SDS011;64831;44.870;37.336;2024-02-14T05:23:39;16.23;;;4.95;;
76103;SDS011;64831;44.870;37.336;2024-02-14T05:26:05;17.70;;;5.40;;
76103;SDS011;64831;44.870;37.336;2024-02-14T05:28:31;16.35;;;4.53;;
76103;SDS011;64831;44.870;37.336;2024-02-14T05:30:57;12.55;;;4.75;;
76103;SDS011;64831;44.870;37.336;2024-02-14T05:33:24;15.77;;;5.88;;
76103;SDS011;64831;44.870;37.336;2024-02-14T05:35:51;11.15;;;4.95;;
76103;SDS011;64831;44.870;37.336;2024-02-14T05:38:17;11.30;;;5.15;;
76103;SDS011;64831;44.870;37.336;2024-02-14T05:40:46;15.07;;;4.80;;
76103;SDS011;64831;44.870;37.336;2024-02-14T05:43:13;13.15;;;4.05;;
76103;SDS011;64831;44.870;37.336;2024-02-14T05:45:39;11.80;;;3.85;;
76103;SDS011;64831;44.870;37.336;2024-02-14T05:48:06;6.97;;;3.83;;
76103;SDS011;64831;44.870;37.336;2024-02-14T05:50:33;4.78;;;2.42;;
76103;SDS011;64831;44.870;37.336;2024-02-14T05:53:00;6.18;;;2.97;;
76103;SDS011;64831;44.870;37.336;2024-02-14T05:55:27;10.07;;;3.30;;
76103;SDS011;64831;44.870;37.336;2024-02-14T05:57:53;8.50;;;3.55;;
76103;SDS011;64831;44.870;37.336;2024-02-14T06:00:20;4.75;;;3.22;;
76103;SDS011;64831;44.870;37.336;2024-02-14T06:02:46;8.05;;;3.67;;
76103;SDS011;64831;44.870;37.336;2024-02-14T06:05:14;11.23;;;4.13;;
76103;SDS011;64831;44.870;37.336;2024-02-14T06:07:40;9.27;;;3.97;;
76103;SDS011;64831;44.870;37.336;2024-02-14T06:10:07;12.10;;;5.00;;
76103;SDS011;64831;44.870;37.336;2024-02-14T06:12:34;12.20;;;4.63;;
76103;SDS011;64831;44.870;37.336;2024-02-14T06:15:01;16.85;;;4.70;;
76103;SDS011;64831;44.870;37.336;2024-02-14T06:17:27;11.05;;;4.05;;
76103;SDS011;64831;44.870;37.336;2024-02-14T06:19:53;15.88;;;4.30;;
76103;SDS011;64831;44.870;37.336;2024-02-14T06:22:19;14.73;;;3.97;;
76103;SDS011;64831;44.870;37.336;2024-02-14T06:24:46;13.55;;;4.40;;
76103;SDS011;64831;44.870;37.336;2024-02-14T06:27:15;21.65;;;5.25;;
76103;SDS011;64831;44.870;37.336;2024-02-14T06:29:42;10.18;;;5.07;;
76103;SDS011;64831;44.870;37.336;2024-02-14T06:32:08;19.70;;;5.00;;
76103;SDS011;64831;44.870;37.336;2024-02-14T06:34:37;13.57;;;4.90;;
76103;SDS011;64831;44.870;37.336;2024-02-14T06:37:03;9.43;;;4.32;;
76103;SDS011;64831;44.870;37.336;2024-02-14T06:39:29;12.40;;;4.35;;
76103;SDS011;64831;44.870;37.336;2024-02-14T06:41:56;8.65;;;4.68;;
76103;SDS011;64831;44.870;37.336;2024-02-14T06:44:23;15.80;;;5.20;;
76103;SDS011;64831;44.870;37.336;2024-02-14T06:46:49;7.90;;;4.38;;
76103;SDS011;64831;44.870;37.336;2024-02-14T06:49:15;6.82;;;4.10;;
76103;SDS011;64831;44.870;37.336;2024-02-14T06:51:42;8.88;;;4.72;;
76103;SDS011;64831;44.870;37.336;2024-02-14T06:54:08;7.80;;;4.68;;
76103;SDS011;64831;44.870;37.336;2024-02-14T06:56:35;10.23;;;5.00;;
76103;SDS011;64831;44.870;37.336;2024-02-14T06:59:01;7.75;;;4.70;;
76103;SDS011;64831;44.870;37.336;2024-02-14T07:01:29;9.73;;;5.18;;
76103;SDS011;64831;44.870;37.336;2024-02-14T07:03:55;7.15;;;4.60;;
76103;SDS011;64831;44.870;37.336;2024-02-14T07:06:21;20.75;;;7.72;;
76103;SDS011;64831;44.870;37.336;2024-02-14T07:08:48;26.15;;;8.27;;
76103;SDS011;64831;44.870;37.336;2024-02-14T07:11:14;18.48;;;6.70;;
76103;SDS011;64831;44.870;37.336;2024-02-14T07:13:44;15.23;;;7.30;;
76103;SDS011;64831;44.870;37.336;2024-02-14T07:16:10;14.63;;;6.53;;
76103;SDS011;64831;44.870;37.336;2024-02-14T07:18:36;13.38;;;6.70;;
76103;SDS011;64831;44.870;37.336;2024-02-14T07:21:01;18.90;;;6.93;;
76103;SDS011;64831;44.870;37.336;2024-02-14T07:23:29;15.27;;;6.38;;
76103;SDS011;64831;44.870;37.336;2024-02-14T07:25:55;29.20;;;6.93;;
76103;SDS011;64831;44.870;37.336;2024-02-14T07:28:21;20.38;;;7.25;;
76103;SDS011;64831;44.870;37.336;2024-02-14T07:30:47;26.65;;;7.43;;
76103;SDS011;64831;44.870;37.336;2024-02-14T07:33:13;21.40;;;7.28;;
76103;SDS011;64831;44.870;37.336;2024-02-14T07:35:39;20.00;;;7.93;;
76103;SDS011;64831;44.870;37.336;2024-02-14T07:38:05;21.95;;;8.07;;
76103;SDS011;64831;44.870;37.336;2024-02-14T07:40:31;35.17;;;8.95;;
76103;SDS011;64831;44.870;37.336;2024-02-14T07:42:57;18.63;;;7.63;;
76103;SDS011;64831;44.870;37.336;2024-02-14T07:45:23;19.58;;;7.80;;
76103;SDS011;64831;44.870;37.336;2024-02-14T07:47:49;18.77;;;7.88;;
76103;SDS011;64831;44.870;37.336;2024-02-14T07:50:15;21.20;;;8.13;;
76103;SDS011;64831;44.870;37.336;2024-02-14T07:52:42;26.02;;;7.40;;
76103;SDS011;64831;44.870;37.336;2024-02-14T07:55:10;18.10;;;5.85;;
76103;SDS011;64831;44.870;37.336;2024-02-14T07:57:38;19.73;;;6.60;;
76103;SDS011;64831;44.870;37.336;2024-02-14T08:00:05;20.42;;;7.07;;
76103;SDS011;64831;44.870;37.336;2024-02-14T08:02:33;27.30;;;8.57;;
76103;SDS011;64831;44.870;37.336;2024-02-14T08:05:00;28.63;;;9.25;;
76103;SDS011;64831;44.870;37.336;2024-02-14T08:07:26;24.08;;;8.70;;
76103;SDS011;64831;44.870;37.336;2024-02-14T08:09:52;20.17;;;8.65;;
76103;SDS011;64831;44.870;37.336;2024-02-14T08:12:19;20.50;;;8.50;;
76103;SDS011;64831;44.870;37.336;2024-02-14T08:14:46;25.23;;;8.10;;
76103;SDS011;64831;44.870;37.336;2024-02-14T08:17:12;24.65;;;8.55;;
76103;SDS011;64831;44.870;37.336;2024-02-14T08:19:38;26.70;;;8.95;;
76103;SDS011;64831;44.870;37.336;2024-02-14T08:22:05;15.57;;;7.45;;
76103;SDS011;64831;44.870;37.336;2024-02-14T08:24:32;16.30;;;6.15;;
76103;SDS011;64831;44.870;37.336;2024-02-14T08:26:58;12.23;;;4.72;;
76103;SDS011;64831;44.870;37.336;2024-02-14T08:29:24;10.57;;;4.60;;
76103;SDS011;64831;44.870;37.336;2024-02-14T08:31:50;8.70;;;5.05;;
76103;SDS011;64831;44.870;37.336;2024-02-14T08:34:16;8.18;;;4.68;;
76103;SDS011;64831;44.870;37.336;2024-02-14T08:36:42;8.93;;;5.07;;
76103;SDS011;64831;44.870;37.336;2024-02-14T08:39:09;13.65;;;5.70;;
76103;SDS011;64831;44.870;37.336;2024-02-14T08:41:36;10.20;;;4.80;;
76103;SDS011;64831;44.870;37.336;2024-02-14T08:44:02;9.23;;;4.63;;
76103;SDS011;64831;44.870;37.336;2024-02-14T08:46:30;10.35;;;5.22;;
76103;SDS011;64831;44.870;37.336;2024-02-14T08:48:56;8.70;;;4.50;;
76103;SDS011;64831;44.870;37.336;2024-02-14T08:51:22;9.68;;;4.82;;
76103;SDS011;64831;44.870;37.336;2024-02-14T08:53:48;7.88;;;4.78;;
76103;SDS011;64831;44.870;37.336;2024-02-14T08:56:20;10.02;;;4.70;;
76103;SDS011;64831;44.870;37.336;2024-02-14T08:58:47;9.98;;;5.47;;
76103;SDS011;64831;44.870;37.336;2024-02-14T09:01:14;10.07;;;5.80;;
76103;SDS011;64831;44.870;37.336;2024-02-14T09:03:43;9.40;;;5.20;;
76103;SDS011;64831;44.870;37.336;2024-02-14T09:06:16;10.73;;;5.40;;
76103;SDS011;64831;44.870;37.336;2024-02-14T09:08:45;10.52;;;4.80;;
76103;SDS011;64831;44.870;37.336;2024-02-14T09:11:11;7.47;;;5.07;;
76103;SDS011;64831;44.870;37.336;2024-02-14T09:13:38;6.93;;;4.72;;
76103;SDS011;64831;44.870;37.336;2024-02-14T09:16:06;11.63;;;4.15;;
76103;SDS011;64831;44.870;37.336;2024-02-14T09:18:33;6.07;;;4.35;;
76103;SDS011;64831;44.870;37.336;2024-02-14T09:21:00;8.43;;;4.78;;
76103;SDS011;64831;44.870;37.336;2024-02-14T09:23:28;9.90;;;4.63;;
76103;SDS011;64831;44.870;37.336;2024-02-14T09:25:55;6.78;;;4.28;;
76103;SDS011;64831;44.870;37.336;2024-02-14T09:28:22;5.75;;;4.22;;
76103;SDS011;64831;44.870;37.336;2024-02-14T09:30:48;7.68;;;5.00;;
76103;SDS011;64831;44.870;37.336;2024-02-14T09:33:14;8.48;;;4.65;;
76103;SDS011;64831;44.870;37.336;2024-02-14T09:35:41;10.23;;;5.05;;
76103;SDS011;64831;44.870;37.336;2024-02-14T09:38:10;9.45;;;4.85;;
76103;SDS011;64831;44.870;37.336;2024-02-14T09:40:38;11.20;;;5.35;;
76103;SDS011;64831;44.870;37.336;2024-02-14T09:43:11;10.30;;;5.28;;
76103;SDS011;64831;44.870;37.336;2024-02-14T09:45:45;9.57;;;6.10;;
76103;SDS011;64831;44.870;37.336;2024-02-14T09:48:12;9.30;;;5.07;;
76103;SDS011;64831;44.870;37.336;2024-02-14T09:50:40;11.98;;;6.18;;
76103;SDS011;64831;44.870;37.336;2024-02-14T09:53:06;10.82;;;6.00;;
76103;SDS011;64831;44.870;37.336;2024-02-14T09:55:33;8.00;;;5.25;;
76103;SDS011;64831;44.870;37.336;2024-02-14T09:57:59;11.20;;;5.57;;
76103;SDS011;64831;44.870;37.336;2024-02-14T10:00:30;8.10;;;4.93;;
76103;SDS011;64831;44.870;37.336;2024-02-14T10:02:57;8.57;;;5.45;;
76103;SDS011;64831;44.870;37.336;2024-02-14T10:05:23;11.00;;;5.20;;
76103;SDS011;64831;44.870;37.336;2024-02-14T10:07:49;6.45;;;4.32;;
76103;SDS011;64831;44.870;37.336;2024-02-14T10:10:15;7.25;;;5.00;;
76103;SDS011;64831;44.870;37.336;2024-02-14T10:12:41;12.13;;;5.63;;
76103;SDS011;64831;44.870;37.336;2024-02-14T10:15:08;16.60;;;6.55;;
76103;SDS011;64831;44.870;37.336;2024-02-14T10:17:34;18.13;;;7.25;;
76103;SDS011;64831;44.870;37.336;2024-02-14T10:20:01;15.02;;;7.82;;
76103;SDS011;64831;44.870;37.336;2024-02-14T10:22:41;14.75;;;6.68;;
76103;SDS011;64831;44.870;37.336;2024-02-14T10:25:07;9.57;;;5.47;;
76103;SDS011;64831;44.870;37.336;2024-02-14T10:27:36;11.77;;;5.90;;
76103;SDS011;64831;44.870;37.336;2024-02-14T10:30:07;8.52;;;5.03;;
76103;SDS011;64831;44.870;37.336;2024-02-14T10:32:37;9.45;;;5.45;;
76103;SDS011;64831;44.870;37.336;2024-02-14T10:35:06;12.73;;;6.10;;
76103;SDS011;64831;44.870;37.336;2024-02-14T10:37:37;11.43;;;6.47;;
76103;SDS011;64831;44.870;37.336;2024-02-14T10:40:04;15.82;;;6.70;;
76103;SDS011;64831;44.870;37.336;2024-02-14T10:42:31;12.25;;;5.18;;
76103;SDS011;64831;44.870;37.336;2024-02-14T10:44:58;11.68;;;5.55;;
76103;SDS011;64831;44.870;37.336;2024-02-14T10:47:29;9.77;;;5.18;;
76103;SDS011;64831;44.870;37.336;2024-02-14T10:49:58;12.40;;;5.60;;
76103;SDS011;64831;44.870;37.336;2024-02-14T10:52:30;12.68;;;5.25;;
76103;SDS011;64831;44.870;37.336;2024-02-14T10:54:58;9.25;;;4.13;;
76103;SDS011;64831;44.870;37.336;2024-02-14T10:57:27;18.30;;;5.65;;
76103;SDS011;64831;44.870;37.336;2024-02-14T10:59:55;14.02;;;5.28;;
76103;SDS011;64831;44.870;37.336;2024-02-14T11:02:23;13.77;;;5.43;;
76103;SDS011;64831;44.870;37.336;2024-02-14T11:04:50;18.60;;;6.20;;
76103;SDS011;64831;44.870;37.336;2024-02-14T11:07:22;10.88;;;5.35;;
76103;SDS011;64831;44.870;37.336;2024-02-14T11:12:47;15.05;;;6.40;;
76103;SDS011;64831;44.870;37.336;2024-02-14T11:15:20;17.00;;;7.80;;
76103;SDS011;64831;44.870;37.336;2024-02-14T11:17:47;15.60;;;7.82;;
76103;SDS011;64831;44.870;37.336;2024-02-14T11:20:15;22.73;;;9.20;;
76103;SDS011;64831;44.870;37.336;2024-02-14T11:25:47;24.90;;;7.65;;
76103;SDS011;64831;44.870;37.336;2024-02-14T11:30:40;15.77;;;6.32;;
76103;SDS011;64831;44.870;37.336;2024-02-14T11:33:28;15.52;;;6.10;;
76103;SDS011;64831;44.870;37.336;2024-02-14T11:35:54;15.98;;;7.30;;
76103;SDS011;64831;44.870;37.336;2024-02-14T11:38:21;16.50;;;6.85;;
76103;SDS011;64831;44.870;37.336;2024-02-14T11:40:49;18.45;;;7.05;;
76103;SDS011;64831;44.870;37.336;2024-02-14T11:43:19;20.02;;;7.40;;
76103;SDS011;64831;44.870;37.336;2024-02-14T11:45:46;14.70;;;6.85;;
76103;SDS011;64831;44.870;37.336;2024-02-14T11:48:15;15.20;;;6.60;;
76103;SDS011;64831;44.870;37.336;2024-02-14T11:50:43;20.90;;;6.00;;
76103;SDS011;64831;44.870;37.336;2024-02-14T11:53:10;20.63;;;7.07;;
76103;SDS011;64831;44.870;37.336;2024-02-14T11:55:39;17.33;;;7.40;;
76103;SDS011;64831;44.870;37.336;2024-02-14T11:58:13;24.92;;;7.90;;
76103;SDS011;64831;44.870;37.336;2024-02-14T12:00:42;13.52;;;7.00;;
76103;SDS011;64831;44.870;37.336;2024-02-14T12:03:13;16.15;;;6.75;;
76103;SDS011;64831;44.870;37.336;2024-02-14T12:05:42;21.23;;;8.73;;
76103;SDS011;64831;44.870;37.336;2024-02-14T12:08:09;19.98;;;8.48;;
76103;SDS011;64831;44.870;37.336;2024-02-14T12:10:36;15.60;;;7.38;;
76103;SDS011;64831;44.870;37.336;2024-02-14T12:13:11;19.27;;;7.70;;
76103;SDS011;64831;44.870;37.336;2024-02-14T12:15:39;23.50;;;8.55;;
76103;SDS011;64831;44.870;37.336;2024-02-14T12:18:10;19.45;;;7.07;;
76103;SDS011;64831;44.870;37.336;2024-02-14T12:20:40;21.63;;;8.30;;
76103;SDS011;64831;44.870;37.336;2024-02-14T12:23:07;29.67;;;8.70;;
76103;SDS011;64831;44.870;37.336;2024-02-14T12:25:33;17.42;;;6.85;;
76103;SDS011;64831;44.870;37.336;2024-02-14T12:27:59;27.02;;;8.23;;
76103;SDS011;64831;44.870;37.336;2024-02-14T12:33:15;19.20;;;7.53;;
76103;SDS011;64831;44.870;37.336;2024-02-14T12:35:46;20.52;;;7.70;;
76103;SDS011;64831;44.870;37.336;2024-02-14T12:38:13;19.70;;;8.02;;
76103;SDS011;64831;44.870;37.336;2024-02-14T12:40:42;18.95;;;7.50;;
76103;SDS011;64831;44.870;37.336;2024-02-14T12:43:10;18.45;;;7.93;;
76103;SDS011;64831;44.870;37.336;2024-02-14T12:45:41;13.52;;;6.85;;
76103;SDS011;64831;44.870;37.336;2024-02-14T12:48:08;16.08;;;5.88;;
76103;SDS011;64831;44.870;37.336;2024-02-14T12:50:35;15.70;;;6.88;;
76103;SDS011;64831;44.870;37.336;2024-02-14T12:53:06;24.55;;;7.47;;
76103;SDS011;64831;44.870;37.336;2024-02-14T12:55:33;26.05;;;7.18;;
76103;SDS011;64831;44.870;37.336;2024-02-14T12:57:59;13.70;;;6.70;;
76103;SDS011;64831;44.870;37.336;2024-02-14T13:00:26;16.38;;;6.03;;
76103;SDS011;64831;44.870;37.336;2024-02-14T13:02:52;11.38;;;5.85;;
76103;SDS011;64831;44.870;37.336;2024-02-14T13:05:19;12.00;;;4.10;;
76103;SDS011;64831;44.870;37.336;2024-02-14T13:07:54;11.05;;;4.80;;
76103;SDS011;64831;44.870;37.336;2024-02-14T13:10:20;17.55;;;6.22;;
76103;SDS011;64831;44.870;37.336;2024-02-14T13:12:46;12.90;;;5.63;;
76103;SDS011;64831;44.870;37.336;2024-02-14T13:15:12;13.20;;;5.32;;
76103;SDS011;64831;44.870;37.336;2024-02-14T13:17:38;11.52;;;5.50;;
76103;SDS011;64831;44.870;37.336;2024-02-14T13:20:04;14.10;;;5.45;;
76103;SDS011;64831;44.870;37.336;2024-02-14T13:22:31;13.27;;;6.00;;
76103;SDS011;64831;44.870;37.336;2024-02-14T13:24:58;14.98;;;5.47;;
76103;SDS011;64831;44.870;37.336;2024-02-14T13:27:26;13.63;;;6.43;;
76103;SDS011;64831;44.870;37.336;2024-02-14T13:29:52;15.05;;;6.18;;
76103;SDS011;64831;44.870;37.336;2024-02-14T13:32:18;24.80;;;6.38;;
76103;SDS011;64831;44.870;37.336;2024-02-14T13:34:44;18.13;;;6.85;;
76103;SDS011;64831;44.870;37.336;2024-02-14T13:37:10;15.15;;;6.53;;
76103;SDS011;64831;44.870;37.336;2024-02-14T13:39:36;17.52;;;7.40;;
76103;SDS011;64831;44.870;37.336;2024-02-14T13:42:02;20.02;;;8.90;;
76103;SDS011;64831;44.870;37.336;2024-02-14T13:44:28;21.95;;;7.88;;
76103;SDS011;64831;44.870;37.336;2024-02-14T13:46:55;19.23;;;8.43;;
76103;SDS011;64831;44.870;37.336;2024-02-14T13:49:21;20.60;;;8.85;;
76103;SDS011;64831;44.870;37.336;2024-02-14T13:51:51;11.27;;;6.03;;
76103;SDS011;64831;44.870;37.336;2024-02-14T13:54:18;23.40;;;8.98;;
76103;SDS011;64831;44.870;37.336;2024-02-14T13:56:44;20.38;;;8.95;;
76103;SDS011;64831;44.870;37.336;2024-02-14T13:59:11;20.33;;;9.35;;
76103;SDS011;64831;44.870;37.336;2024-02-14T14:01:37;20.67;;;9.07;;
76103;SDS011;64831;44.870;37.336;2024-02-14T14:04:03;15.95;;;7.60;;
76103;SDS011;64831;44.870;37.336;2024-02-14T14:06:30;23.02;;;10.20;;
76103;SDS011;64831;44.870;37.336;2024-02-14T14:08:56;23.52;;;9.48;;
76103;SDS011;64831;44.870;37.336;2024-02-14T14:11:22;18.38;;;9.65;;
76103;SDS011;64831;44.870;37.336;2024-02-14T14:13:48;27.20;;;9.75;;
76103;SDS011;64831;44.870;37.336;2024-02-14T14:16:14;18.60;;;7.93;;
76103;SDS011;64831;44.870;37.336;2024-02-14T14:18:41;22.45;;;10.77;;
76103;SDS011;64831;44.870;37.336;2024-02-14T14:21:07;19.05;;;9.73;;
76103;SDS011;64831;44.870;37.336;2024-02-14T14:23:32;23.63;;;9.75;;
76103;SDS011;64831;44.870;37.336;2024-02-14T14:25:59;21.88;;;10.35;;
76103;SDS011;64831;44.870;37.336;2024-02-14T14:28:26;30.98;;;11.25;;
76103;SDS011;64831;44.870;37.336;2024-02-14T14:30:52;36.30;;;12.75;;
76103;SDS011;64831;44.870;37.336;2024-02-14T14:33:21;30.08;;;13.10;;
76103;SDS011;64831;44.870;37.336;2024-02-14T14:35:48;29.10;;;13.25;;